sensor_id;sensor_type;location;lat;lon;timestamp;P1;durP1;ratioP1;P2;durP2;ratioP2
10894;SDS011;5500;49.886;8.074;2024-03-08T00:00:14;18.43;;;12.77;;
10894;SDS011;5500;49.886;8.074;2024-03-08T00:02:46;16.80;;;13.23;;
10894;SDS011;5500;49.886;8.074;2024-03-08T00:05:14;18.17;;;13.00;;
10894;SDS011;5500;49.886;8.074;2024-03-08T00:07:42;18.23;;;14.10;;
10894;SDS011;5500;49.886;8.074;2024-03-08T00:10:10;22.63;;;13.43;;
10894;SDS011;5500;49.886;8.074;2024-03-08T00:12:41;18.37;;;12.77;;
10894;SDS011;5500;49.886;8.074;2024-03-08T00:15:10;18.20;;;13.60;;
10894;SDS011;5500;49.886;8.074;2024-03-08T00:17:42;15.80;;;14.07;;
10894;SDS011;5500;49.886;8.074;2024-03-08T00:20:11;18.63;;;14.40;;
10894;SDS011;5500;49.886;8.074;2024-03-08T00:22:40;15.77;;;13.00;;
10894;SDS011;5500;49.886;8.074;2024-03-08T00:25:08;17.73;;;13.17;;
10894;SDS011;5500;49.886;8.074;2024-03-08T00:27:36;25.20;;;14.80;;
10894;SDS011;5500;49.886;8.074;2024-03-08T00:30:05;18.03;;;13.40;;
10894;SDS011;5500;49.886;8.074;2024-03-08T00:32:34;18.47;;;14.03;;
10894;SDS011;5500;49.886;8.074;2024-03-08T00:35:05;17.63;;;13.73;;
10894;SDS011;5500;49.886;8.074;2024-03-08T00:37:34;21.73;;;14.37;;
10894;SDS011;5500;49.886;8.074;2024-03-08T00:40:02;21.17;;;14.50;;
10894;SDS011;5500;49.886;8.074;2024-03-08T00:42:31;17.97;;;13.77;;
10894;SDS011;5500;49.886;8.074;2024-03-08T00:45:00;19.13;;;14.10;;
10894;SDS011;5500;49.886;8.074;2024-03-08T00:47:28;21.30;;;14.40;;
10894;SDS011;5500;49.886;8.074;2024-03-08T00:49:56;17.50;;;14.03;;
10894;SDS011;5500;49.886;8.074;2024-03-08T00:52:25;17.67;;;14.47;;
10894;SDS011;5500;49.886;8.074;2024-03-08T00:54:53;19.70;;;13.97;;
10894;SDS011;5500;49.886;8.074;2024-03-08T00:57:21;20.80;;;15.43;;
10894;SDS011;5500;49.886;8.074;2024-03-08T00:59:48;20.67;;;14.87;;
10894;SDS011;5500;49.886;8.074;2024-03-08T01:02:16;19.30;;;14.57;;
10894;SDS011;5500;49.886;8.074;2024-03-08T01:04:48;17.00;;;13.43;;
10894;SDS011;5500;49.886;8.074;2024-03-08T01:07:16;17.97;;;14.00;;
10894;SDS011;5500;49.886;8.074;2024-03-08T01:09:45;24.17;;;14.40;;
10894;SDS011;5500;49.886;8.074;2024-03-08T01:12:13;20.90;;;15.10;;
10894;SDS011;5500;49.886;8.074;2024-03-08T01:14:41;18.97;;;14.07;;
10894;SDS011;5500;49.886;8.074;2024-03-08T01:17:08;20.57;;;14.00;;
10894;SDS011;5500;49.886;8.074;2024-03-08T01:19:36;21.93;;;14.60;;
10894;SDS011;5500;49.886;8.074;2024-03-08T01:22:05;19.47;;;15.07;;
10894;SDS011;5500;49.886;8.074;2024-03-08T01:24:33;17.83;;;15.03;;
10894;SDS011;5500;49.886;8.074;2024-03-08T01:27:03;21.70;;;15.87;;
10894;SDS011;5500;49.886;8.074;2024-03-08T01:29:31;17.53;;;13.67;;
10894;SDS011;5500;49.886;8.074;2024-03-08T01:31:59;20.67;;;15.03;;
10894;SDS011;5500;49.886;8.074;2024-03-08T01:34:28;18.43;;;13.93;;
10894;SDS011;5500;49.886;8.074;2024-03-08T01:36:55;19.37;;;14.73;;
10894;SDS011;5500;49.886;8.074;2024-03-08T01:39:23;21.57;;;14.70;;
10894;SDS011;5500;49.886;8.074;2024-03-08T01:41:51;23.30;;;15.23;;
10894;SDS011;5500;49.886;8.074;2024-03-08T01:44:22;19.30;;;13.73;;
10894;SDS011;5500;49.886;8.074;2024-03-08T01:46:50;22.37;;;13.87;;
10894;SDS011;5500;49.886;8.074;2024-03-08T01:49:20;17.33;;;13.67;;
10894;SDS011;5500;49.886;8.074;2024-03-08T01:51:50;21.67;;;14.23;;
10894;SDS011;5500;49.886;8.074;2024-03-08T01:54:18;21.87;;;14.77;;
10894;SDS011;5500;49.886;8.074;2024-03-08T01:56:46;19.07;;;15.10;;
10894;SDS011;5500;49.886;8.074;2024-03-08T01:59:15;20.27;;;13.87;;
10894;SDS011;5500;49.886;8.074;2024-03-08T02:01:44;21.60;;;14.60;;
10894;SDS011;5500;49.886;8.074;2024-03-08T02:04:12;23.70;;;15.40;;
10894;SDS011;5500;49.886;8.074;2024-03-08T02:06:40;20.83;;;14.10;;
10894;SDS011;5500;49.886;8.074;2024-03-08T02:09:08;18.37;;;14.43;;
10894;SDS011;5500;49.886;8.074;2024-03-08T02:11:36;21.27;;;14.27;;
10894;SDS011;5500;49.886;8.074;2024-03-08T02:14:04;19.03;;;14.93;;
10894;SDS011;5500;49.886;8.074;2024-03-08T02:16:33;19.23;;;14.40;;
10894;SDS011;5500;49.886;8.074;2024-03-08T02:19:02;21.37;;;16.47;;
10894;SDS011;5500;49.886;8.074;2024-03-08T02:21:31;22.60;;;15.43;;
10894;SDS011;5500;49.886;8.074;2024-03-08T02:24:00;20.63;;;17.67;;
10894;SDS011;5500;49.886;8.074;2024-03-08T02:26:28;18.93;;;15.07;;
10894;SDS011;5500;49.886;8.074;2024-03-08T02:28:56;19.83;;;15.37;;
10894;SDS011;5500;49.886;8.074;2024-03-08T02:31:23;20.87;;;15.37;;
10894;SDS011;5500;49.886;8.074;2024-03-08T02:33:51;19.00;;;14.90;;
10894;SDS011;5500;49.886;8.074;2024-03-08T02:36:19;19.43;;;14.70;;
10894;SDS011;5500;49.886;8.074;2024-03-08T02:38:49;20.63;;;15.27;;
10894;SDS011;5500;49.886;8.074;2024-03-08T02:41:16;20.37;;;14.97;;
10894;SDS011;5500;49.886;8.074;2024-03-08T02:43:44;21.63;;;15.97;;
10894;SDS011;5500;49.886;8.074;2024-03-08T02:46:12;18.67;;;14.87;;
10894;SDS011;5500;49.886;8.074;2024-03-08T02:48:41;24.00;;;15.07;;
10894;SDS011;5500;49.886;8.074;2024-03-08T02:51:09;18.57;;;15.27;;
10894;SDS011;5500;49.886;8.074;2024-03-08T02:53:38;20.43;;;14.93;;
10894;SDS011;5500;49.886;8.074;2024-03-08T02:56:07;19.20;;;15.27;;
10894;SDS011;5500;49.886;8.074;2024-03-08T02:58:39;25.20;;;15.90;;
10894;SDS011;5500;49.886;8.074;2024-03-08T03:01:06;20.33;;;15.17;;
10894;SDS011;5500;49.886;8.074;2024-03-08T03:03:34;21.27;;;15.03;;
10894;SDS011;5500;49.886;8.074;2024-03-08T03:06:03;21.37;;;15.97;;
10894;SDS011;5500;49.886;8.074;2024-03-08T03:08:33;23.03;;;15.47;;
10894;SDS011;5500;49.886;8.074;2024-03-08T03:11:01;21.87;;;15.73;;
10894;SDS011;5500;49.886;8.074;2024-03-08T03:13:30;19.73;;;15.03;;
10894;SDS011;5500;49.886;8.074;2024-03-08T03:15:59;21.83;;;16.10;;
10894;SDS011;5500;49.886;8.074;2024-03-08T03:18:27;20.13;;;14.33;;
10894;SDS011;5500;49.886;8.074;2024-03-08T03:20:55;22.70;;;14.43;;
10894;SDS011;5500;49.886;8.074;2024-03-08T03:23:22;17.90;;;14.37;;
10894;SDS011;5500;49.886;8.074;2024-03-08T03:25:52;22.13;;;14.57;;
10894;SDS011;5500;49.886;8.074;2024-03-08T03:28:23;20.63;;;14.70;;
10894;SDS011;5500;49.886;8.074;2024-03-08T03:30:52;20.47;;;15.10;;
10894;SDS011;5500;49.886;8.074;2024-03-08T03:33:20;22.00;;;15.83;;
10894;SDS011;5500;49.886;8.074;2024-03-08T03:35:48;17.80;;;13.77;;
10894;SDS011;5500;49.886;8.074;2024-03-08T03:38:18;20.90;;;14.23;;
10894;SDS011;5500;49.886;8.074;2024-03-08T03:40:49;22.10;;;16.17;;
10894;SDS011;5500;49.886;8.074;2024-03-08T03:43:19;19.47;;;14.37;;
10894;SDS011;5500;49.886;8.074;2024-03-08T03:45:46;20.97;;;13.93;;
10894;SDS011;5500;49.886;8.074;2024-03-08T03:48:16;21.93;;;15.13;;
10894;SDS011;5500;49.886;8.074;2024-03-08T03:50:44;24.23;;;16.43;;
10894;SDS011;5500;49.886;8.074;2024-03-08T03:53:12;19.73;;;14.73;;
10894;SDS011;5500;49.886;8.074;2024-03-08T03:55:39;23.17;;;15.17;;
10894;SDS011;5500;49.886;8.074;2024-03-08T03:58:07;21.83;;;15.30;;
10894;SDS011;5500;49.886;8.074;2024-03-08T04:00:37;20.23;;;15.50;;
10894;SDS011;5500;49.886;8.074;2024-03-08T04:03:05;21.50;;;14.97;;
10894;SDS011;5500;49.886;8.074;2024-03-08T04:05:35;23.03;;;15.03;;
10894;SDS011;5500;49.886;8.074;2024-03-08T04:08:03;22.00;;;14.80;;
10894;SDS011;5500;49.886;8.074;2024-03-08T04:10:32;20.10;;;14.80;;
10894;SDS011;5500;49.886;8.074;2024-03-08T04:13:00;20.67;;;16.33;;
10894;SDS011;5500;49.886;8.074;2024-03-08T04:15:28;19.67;;;14.33;;
10894;SDS011;5500;49.886;8.074;2024-03-08T04:17:56;21.67;;;15.33;;
10894;SDS011;5500;49.886;8.074;2024-03-08T04:20:27;23.27;;;15.63;;
10894;SDS011;5500;49.886;8.074;2024-03-08T04:22:56;23.97;;;15.60;;
10894;SDS011;5500;49.886;8.074;2024-03-08T04:25:24;23.50;;;16.20;;
10894;SDS011;5500;49.886;8.074;2024-03-08T04:27:51;23.07;;;15.97;;
10894;SDS011;5500;49.886;8.074;2024-03-08T04:30:20;23.53;;;14.60;;
10894;SDS011;5500;49.886;8.074;2024-03-08T04:32:48;24.43;;;15.67;;
10894;SDS011;5500;49.886;8.074;2024-03-08T04:35:16;27.20;;;16.60;;
10894;SDS011;5500;49.886;8.074;2024-03-08T04:37:46;21.93;;;15.60;;
10894;SDS011;5500;49.886;8.074;2024-03-08T04:40:15;23.07;;;16.30;;
10894;SDS011;5500;49.886;8.074;2024-03-08T04:42:45;23.10;;;15.70;;
10894;SDS011;5500;49.886;8.074;2024-03-08T04:45:13;24.93;;;16.50;;
10894;SDS011;5500;49.886;8.074;2024-03-08T04:47:41;24.23;;;16.03;;
10894;SDS011;5500;49.886;8.074;2024-03-08T04:50:09;21.87;;;15.90;;
10894;SDS011;5500;49.886;8.074;2024-03-08T04:52:37;23.67;;;16.80;;
10894;SDS011;5500;49.886;8.074;2024-03-08T04:55:05;23.13;;;17.30;;
10894;SDS011;5500;49.886;8.074;2024-03-08T04:57:35;23.57;;;16.43;;
10894;SDS011;5500;49.886;8.074;2024-03-08T05:00:03;24.50;;;17.40;;
10894;SDS011;5500;49.886;8.074;2024-03-08T05:02:37;23.73;;;16.03;;
10894;SDS011;5500;49.886;8.074;2024-03-08T05:05:05;26.87;;;17.50;;
10894;SDS011;5500;49.886;8.074;2024-03-08T05:07:33;24.67;;;16.00;;
10894;SDS011;5500;49.886;8.074;2024-03-08T05:10:01;21.50;;;16.40;;
10894;SDS011;5500;49.886;8.074;2024-03-08T05:12:29;22.00;;;16.60;;
10894;SDS011;5500;49.886;8.074;2024-03-08T05:14:59;26.77;;;17.53;;
10894;SDS011;5500;49.886;8.074;2024-03-08T05:17:26;23.10;;;16.40;;
10894;SDS011;5500;49.886;8.074;2024-03-08T05:19:54;26.90;;;17.33;;
10894;SDS011;5500;49.886;8.074;2024-03-08T05:22:22;26.40;;;16.53;;
10894;SDS011;5500;49.886;8.074;2024-03-08T05:24:50;24.13;;;16.23;;
10894;SDS011;5500;49.886;8.074;2024-03-08T05:27:17;26.97;;;17.10;;
10894;SDS011;5500;49.886;8.074;2024-03-08T05:29:45;27.53;;;18.27;;
10894;SDS011;5500;49.886;8.074;2024-03-08T05:32:14;24.53;;;17.60;;
10894;SDS011;5500;49.886;8.074;2024-03-08T05:34:42;24.83;;;17.23;;
10894;SDS011;5500;49.886;8.074;2024-03-08T05:37:10;29.07;;;17.63;;
10894;SDS011;5500;49.886;8.074;2024-03-08T05:39:38;25.67;;;17.67;;
10894;SDS011;5500;49.886;8.074;2024-03-08T05:42:07;27.03;;;17.30;;
10894;SDS011;5500;49.886;8.074;2024-03-08T05:44:35;25.50;;;17.17;;
10894;SDS011;5500;49.886;8.074;2024-03-08T05:47:03;27.90;;;17.53;;
10894;SDS011;5500;49.886;8.074;2024-03-08T05:49:34;28.93;;;18.90;;
10894;SDS011;5500;49.886;8.074;2024-03-08T05:52:02;24.00;;;16.90;;
10894;SDS011;5500;49.886;8.074;2024-03-08T05:54:31;25.50;;;17.23;;
10894;SDS011;5500;49.886;8.074;2024-03-08T05:56:59;26.93;;;18.17;;
10894;SDS011;5500;49.886;8.074;2024-03-08T05:59:27;29.07;;;19.03;;
10894;SDS011;5500;49.886;8.074;2024-03-08T06:01:55;26.77;;;17.80;;
10894;SDS011;5500;49.886;8.074;2024-03-08T06:04:24;24.17;;;17.67;;
10894;SDS011;5500;49.886;8.074;2024-03-08T06:06:53;27.00;;;17.50;;
10894;SDS011;5500;49.886;8.074;2024-03-08T06:09:22;27.03;;;17.83;;
10894;SDS011;5500;49.886;8.074;2024-03-08T06:11:51;25.80;;;18.23;;
10894;SDS011;5500;49.886;8.074;2024-03-08T06:14:20;23.27;;;16.50;;
10894;SDS011;5500;49.886;8.074;2024-03-08T06:16:48;28.57;;;18.47;;
10894;SDS011;5500;49.886;8.074;2024-03-08T06:19:16;27.07;;;18.00;;
10894;SDS011;5500;49.886;8.074;2024-03-08T06:21:44;25.23;;;17.83;;
10894;SDS011;5500;49.886;8.074;2024-03-08T06:24:14;27.70;;;18.10;;
10894;SDS011;5500;49.886;8.074;2024-03-08T06:26:42;27.13;;;17.30;;
10894;SDS011;5500;49.886;8.074;2024-03-08T06:29:10;28.00;;;18.47;;
10894;SDS011;5500;49.886;8.074;2024-03-08T06:31:39;25.73;;;17.60;;
10894;SDS011;5500;49.886;8.074;2024-03-08T06:34:07;25.13;;;18.67;;
10894;SDS011;5500;49.886;8.074;2024-03-08T06:36:35;24.63;;;17.23;;
10894;SDS011;5500;49.886;8.074;2024-03-08T06:39:04;24.97;;;18.30;;
10894;SDS011;5500;49.886;8.074;2024-03-08T06:41:38;27.13;;;19.07;;
10894;SDS011;5500;49.886;8.074;2024-03-08T06:44:06;29.43;;;18.20;;
10894;SDS011;5500;49.886;8.074;2024-03-08T06:46:35;29.30;;;19.17;;
10894;SDS011;5500;49.886;8.074;2024-03-08T06:49:04;30.23;;;19.33;;
10894;SDS011;5500;49.886;8.074;2024-03-08T06:51:33;25.93;;;18.27;;
10894;SDS011;5500;49.886;8.074;2024-03-08T06:54:01;27.03;;;18.80;;
10894;SDS011;5500;49.886;8.074;2024-03-08T06:56:35;29.60;;;19.13;;
10894;SDS011;5500;49.886;8.074;2024-03-08T06:59:04;27.23;;;19.40;;
10894;SDS011;5500;49.886;8.074;2024-03-08T07:01:32;31.30;;;20.40;;
10894;SDS011;5500;49.886;8.074;2024-03-08T07:04:03;25.60;;;17.73;;
10894;SDS011;5500;49.886;8.074;2024-03-08T07:06:32;27.63;;;18.97;;
10894;SDS011;5500;49.886;8.074;2024-03-08T07:09:00;27.33;;;18.43;;
10894;SDS011;5500;49.886;8.074;2024-03-08T07:11:28;28.57;;;18.63;;
10894;SDS011;5500;49.886;8.074;2024-03-08T07:13:56;23.87;;;17.83;;
10894;SDS011;5500;49.886;8.074;2024-03-08T07:16:26;26.80;;;18.37;;
10894;SDS011;5500;49.886;8.074;2024-03-08T07:18:54;26.93;;;18.57;;
10894;SDS011;5500;49.886;8.074;2024-03-08T07:21:23;27.20;;;17.93;;
10894;SDS011;5500;49.886;8.074;2024-03-08T07:23:51;25.93;;;19.27;;
10894;SDS011;5500;49.886;8.074;2024-03-08T07:26:39;24.93;;;18.60;;
10894;SDS011;5500;49.886;8.074;2024-03-08T07:29:07;24.17;;;18.77;;
10894;SDS011;5500;49.886;8.074;2024-03-08T07:31:36;26.57;;;17.70;;
10894;SDS011;5500;49.886;8.074;2024-03-08T07:34:16;26.77;;;18.83;;
10894;SDS011;5500;49.886;8.074;2024-03-08T07:36:44;23.63;;;17.10;;
10894;SDS011;5500;49.886;8.074;2024-03-08T07:39:12;25.73;;;19.07;;
10894;SDS011;5500;49.886;8.074;2024-03-08T07:41:40;24.23;;;17.90;;
10894;SDS011;5500;49.886;8.074;2024-03-08T07:44:07;27.13;;;18.90;;
10894;SDS011;5500;49.886;8.074;2024-03-08T07:46:37;23.20;;;17.27;;
10894;SDS011;5500;49.886;8.074;2024-03-08T07:49:04;24.50;;;17.37;;
10894;SDS011;5500;49.886;8.074;2024-03-08T07:51:33;27.67;;;18.27;;
10894;SDS011;5500;49.886;8.074;2024-03-08T07:54:01;26.63;;;18.60;;
10894;SDS011;5500;49.886;8.074;2024-03-08T07:56:31;22.40;;;16.13;;
10894;SDS011;5500;49.886;8.074;2024-03-08T07:58:58;25.37;;;17.70;;
10894;SDS011;5500;49.886;8.074;2024-03-08T08:01:26;23.20;;;17.53;;
10894;SDS011;5500;49.886;8.074;2024-03-08T08:03:55;22.23;;;17.17;;
10894;SDS011;5500;49.886;8.074;2024-03-08T08:06:24;22.93;;;16.57;;
10894;SDS011;5500;49.886;8.074;2024-03-08T08:08:51;21.90;;;16.03;;
10894;SDS011;5500;49.886;8.074;2024-03-08T08:11:19;25.67;;;17.50;;
10894;SDS011;5500;49.886;8.074;2024-03-08T08:13:47;22.70;;;17.67;;
10894;SDS011;5500;49.886;8.074;2024-03-08T08:16:18;21.83;;;16.43;;
10894;SDS011;5500;49.886;8.074;2024-03-08T08:18:46;23.87;;;16.13;;
10894;SDS011;5500;49.886;8.074;2024-03-08T08:21:16;24.23;;;17.10;;
10894;SDS011;5500;49.886;8.074;2024-03-08T08:23:44;22.57;;;16.83;;
10894;SDS011;5500;49.886;8.074;2024-03-08T08:26:12;21.60;;;16.00;;
10894;SDS011;5500;49.886;8.074;2024-03-08T08:28:40;22.40;;;16.93;;
10894;SDS011;5500;49.886;8.074;2024-03-08T08:31:09;22.87;;;17.10;;
10894;SDS011;5500;49.886;8.074;2024-03-08T08:33:37;22.83;;;16.67;;
10894;SDS011;5500;49.886;8.074;2024-03-08T08:36:06;21.73;;;15.67;;
10894;SDS011;5500;49.886;8.074;2024-03-08T08:38:36;24.47;;;17.00;;
10894;SDS011;5500;49.886;8.074;2024-03-08T08:41:04;23.07;;;16.27;;
10894;SDS011;5500;49.886;8.074;2024-03-08T08:43:32;22.03;;;17.00;;
10894;SDS011;5500;49.886;8.074;2024-03-08T08:46:02;21.17;;;16.27;;
10894;SDS011;5500;49.886;8.074;2024-03-08T08:48:31;23.27;;;17.20;;
10894;SDS011;5500;49.886;8.074;2024-03-08T08:50:58;22.60;;;17.13;;
10894;SDS011;5500;49.886;8.074;2024-03-08T08:53:26;21.33;;;16.63;;
10894;SDS011;5500;49.886;8.074;2024-03-08T08:55:55;22.53;;;16.47;;
10894;SDS011;5500;49.886;8.074;2024-03-08T08:58:23;22.00;;;16.13;;
10894;SDS011;5500;49.886;8.074;2024-03-08T09:00:51;21.03;;;15.80;;
10894;SDS011;5500;49.886;8.074;2024-03-08T09:03:19;21.67;;;16.07;;
10894;SDS011;5500;49.886;8.074;2024-03-08T09:05:47;21.50;;;15.83;;
10894;SDS011;5500;49.886;8.074;2024-03-08T09:08:14;22.13;;;17.30;;
10894;SDS011;5500;49.886;8.074;2024-03-08T09:10:42;25.17;;;17.20;;
10894;SDS011;5500;49.886;8.074;2024-03-08T09:13:12;20.70;;;15.37;;
10894;SDS011;5500;49.886;8.074;2024-03-08T09:15:53;24.23;;;16.30;;
10894;SDS011;5500;49.886;8.074;2024-03-08T09:18:21;20.57;;;15.40;;
10894;SDS011;5500;49.886;8.074;2024-03-08T09:20:50;21.63;;;15.73;;
10894;SDS011;5500;49.886;8.074;2024-03-08T09:23:19;21.80;;;15.63;;
10894;SDS011;5500;49.886;8.074;2024-03-08T09:25:47;18.53;;;15.57;;
10894;SDS011;5500;49.886;8.074;2024-03-08T09:28:16;20.03;;;14.57;;
10894;SDS011;5500;49.886;8.074;2024-03-08T09:30:44;18.57;;;14.77;;
10894;SDS011;5500;49.886;8.074;2024-03-08T09:33:24;20.60;;;15.70;;
10894;SDS011;5500;49.886;8.074;2024-03-08T09:35:53;22.13;;;15.87;;
10894;SDS011;5500;49.886;8.074;2024-03-08T09:38:25;18.70;;;14.17;;
10894;SDS011;5500;49.886;8.074;2024-03-08T09:40:53;18.47;;;14.77;;
10894;SDS011;5500;49.886;8.074;2024-03-08T09:43:24;20.20;;;15.10;;
10894;SDS011;5500;49.886;8.074;2024-03-08T09:45:52;20.27;;;14.30;;
10894;SDS011;5500;49.886;8.074;2024-03-08T09:48:20;21.40;;;14.80;;
10894;SDS011;5500;49.886;8.074;2024-03-08T09:50:49;18.50;;;14.13;;
10894;SDS011;5500;49.886;8.074;2024-03-08T09:53:17;17.83;;;13.93;;
10894;SDS011;5500;49.886;8.074;2024-03-08T09:55:45;21.60;;;15.73;;
10894;SDS011;5500;49.886;8.074;2024-03-08T09:58:15;18.27;;;13.83;;
10894;SDS011;5500;49.886;8.074;2024-03-08T10:00:58;17.17;;;13.73;;
10894;SDS011;5500;49.886;8.074;2024-03-08T10:03:28;19.40;;;13.83;;
10894;SDS011;5500;49.886;8.074;2024-03-08T10:05:56;18.20;;;13.80;;
10894;SDS011;5500;49.886;8.074;2024-03-08T10:08:26;18.77;;;13.80;;
10894;SDS011;5500;49.886;8.074;2024-03-08T10:10:55;20.27;;;14.27;;
10894;SDS011;5500;49.886;8.074;2024-03-08T10:13:24;20.10;;;14.93;;
10894;SDS011;5500;49.886;8.074;2024-03-08T10:15:53;21.47;;;14.30;;
10894;SDS011;5500;49.886;8.074;2024-03-08T10:18:22;16.97;;;13.03;;
10894;SDS011;5500;49.886;8.074;2024-03-08T10:21:03;18.37;;;13.00;;
10894;SDS011;5500;49.886;8.074;2024-03-08T10:23:31;17.23;;;13.20;;
10894;SDS011;5500;49.886;8.074;2024-03-08T10:26:09;20.90;;;14.17;;
10894;SDS011;5500;49.886;8.074;2024-03-08T10:28:41;17.67;;;13.43;;
10894;SDS011;5500;49.886;8.074;2024-03-08T10:31:09;18.13;;;12.97;;
10894;SDS011;5500;49.886;8.074;2024-03-08T10:33:39;17.40;;;14.10;;
10894;SDS011;5500;49.886;8.074;2024-03-08T10:36:08;16.47;;;13.43;;
10894;SDS011;5500;49.886;8.074;2024-03-08T10:38:36;18.03;;;13.50;;
10894;SDS011;5500;49.886;8.074;2024-03-08T10:41:06;17.27;;;13.37;;
10894;SDS011;5500;49.886;8.074;2024-03-08T10:43:39;20.40;;;14.33;;
10894;SDS011;5500;49.886;8.074;2024-03-08T10:46:21;16.67;;;13.57;;
10894;SDS011;5500;49.886;8.074;2024-03-08T10:48:57;16.30;;;13.37;;
10894;SDS011;5500;49.886;8.074;2024-03-08T10:51:29;16.30;;;11.83;;
10894;SDS011;5500;49.886;8.074;2024-03-08T10:54:02;15.80;;;12.43;;
10894;SDS011;5500;49.886;8.074;2024-03-08T10:56:31;16.70;;;12.87;;
10894;SDS011;5500;49.886;8.074;2024-03-08T10:58:59;15.57;;;12.10;;
10894;SDS011;5500;49.886;8.074;2024-03-08T11:01:30;17.57;;;12.73;;
10894;SDS011;5500;49.886;8.074;2024-03-08T11:03:59;15.50;;;12.33;;
10894;SDS011;5500;49.886;8.074;2024-03-08T11:06:29;14.87;;;12.77;;
10894;SDS011;5500;49.886;8.074;2024-03-08T11:08:58;15.63;;;12.53;;
10894;SDS011;5500;49.886;8.074;2024-03-08T11:11:27;16.80;;;12.57;;
10894;SDS011;5500;49.886;8.074;2024-03-08T11:14:00;15.90;;;12.40;;
10894;SDS011;5500;49.886;8.074;2024-03-08T11:16:39;16.30;;;13.23;;
10894;SDS011;5500;49.886;8.074;2024-03-08T11:19:26;14.43;;;12.10;;
10894;SDS011;5500;49.886;8.074;2024-03-08T11:21:58;18.77;;;13.67;;
10894;SDS011;5500;49.886;8.074;2024-03-08T11:24:27;15.50;;;12.17;;
10894;SDS011;5500;49.886;8.074;2024-03-08T11:26:56;15.20;;;12.63;;
10894;SDS011;5500;49.886;8.074;2024-03-08T11:29:38;14.93;;;12.13;;
10894;SDS011;5500;49.886;8.074;2024-03-08T11:32:07;15.67;;;12.43;;
10894;SDS011;5500;49.886;8.074;2024-03-08T11:34:37;15.90;;;13.07;;
10894;SDS011;5500;49.886;8.074;2024-03-08T11:37:05;17.17;;;13.53;;
10894;SDS011;5500;49.886;8.074;2024-03-08T11:39:35;17.87;;;12.97;;
10894;SDS011;5500;49.886;8.074;2024-03-08T11:42:04;15.67;;;13.10;;
10894;SDS011;5500;49.886;8.074;2024-03-08T11:44:33;16.47;;;12.87;;
10894;SDS011;5500;49.886;8.074;2024-03-08T11:47:00;16.73;;;13.50;;
10894;SDS011;5500;49.886;8.074;2024-03-08T11:49:28;19.53;;;13.33;;
10894;SDS011;5500;49.886;8.074;2024-03-08T11:51:58;15.87;;;14.10;;
10894;SDS011;5500;49.886;8.074;2024-03-08T11:54:26;16.60;;;13.70;;
10894;SDS011;5500;49.886;8.074;2024-03-08T11:56:56;16.10;;;13.37;;
10894;SDS011;5500;49.886;8.074;2024-03-08T11:59:27;18.13;;;14.43;;
10894;SDS011;5500;49.886;8.074;2024-03-08T12:01:59;14.93;;;12.63;;
10894;SDS011;5500;49.886;8.074;2024-03-08T12:04:31;17.27;;;13.57;;
10894;SDS011;5500;49.886;8.074;2024-03-08T12:07:00;15.97;;;12.67;;
10894;SDS011;5500;49.886;8.074;2024-03-08T12:09:30;18.20;;;12.63;;
10894;SDS011;5500;49.886;8.074;2024-03-08T12:11:58;13.67;;;12.10;;
10894;SDS011;5500;49.886;8.074;2024-03-08T12:14:26;16.10;;;13.37;;
10894;SDS011;5500;49.886;8.074;2024-03-08T12:16:53;16.23;;;13.33;;
10894;SDS011;5500;49.886;8.074;2024-03-08T12:19:21;18.53;;;13.77;;
10894;SDS011;5500;49.886;8.074;2024-03-08T12:21:49;14.10;;;12.10;;
10894;SDS011;5500;49.886;8.074;2024-03-08T12:24:18;13.07;;;11.03;;
10894;SDS011;5500;49.886;8.074;2024-03-08T12:26:47;15.00;;;11.50;;
10894;SDS011;5500;49.886;8.074;2024-03-08T12:29:16;14.47;;;12.37;;
10894;SDS011;5500;49.886;8.074;2024-03-08T12:31:46;14.43;;;12.47;;
10894;SDS011;5500;49.886;8.074;2024-03-08T12:34:14;17.50;;;13.63;;
10894;SDS011;5500;49.886;8.074;2024-03-08T12:36:45;16.07;;;12.50;;
10894;SDS011;5500;49.886;8.074;2024-03-08T12:39:20;15.57;;;12.93;;
10894;SDS011;5500;49.886;8.074;2024-03-08T12:41:53;14.83;;;12.57;;
10894;SDS011;5500;49.886;8.074;2024-03-08T12:44:23;14.83;;;12.23;;
10894;SDS011;5500;49.886;8.074;2024-03-08T12:46:52;15.17;;;12.37;;
10894;SDS011;5500;49.886;8.074;2024-03-08T12:49:21;16.00;;;13.17;;
10894;SDS011;5500;49.886;8.074;2024-03-08T12:51:49;14.27;;;12.63;;
10894;SDS011;5500;49.886;8.074;2024-03-08T12:54:20;15.73;;;13.33;;
10894;SDS011;5500;49.886;8.074;2024-03-08T12:56:51;14.97;;;13.23;;
10894;SDS011;5500;49.886;8.074;2024-03-08T12:59:20;14.77;;;12.43;;
10894;SDS011;5500;49.886;8.074;2024-03-08T13:01:49;15.87;;;12.17;;
10894;SDS011;5500;49.886;8.074;2024-03-08T13:04:20;16.37;;;13.10;;
10894;SDS011;5500;49.886;8.074;2024-03-08T13:06:48;15.63;;;12.90;;
10894;SDS011;5500;49.886;8.074;2024-03-08T13:09:22;18.27;;;14.30;;
10894;SDS011;5500;49.886;8.074;2024-03-08T13:11:53;16.07;;;12.80;;
10894;SDS011;5500;49.886;8.074;2024-03-08T13:14:21;14.93;;;12.73;;
10894;SDS011;5500;49.886;8.074;2024-03-08T13:16:49;18.10;;;13.53;;
10894;SDS011;5500;49.886;8.074;2024-03-08T13:19:18;16.30;;;13.23;;
10894;SDS011;5500;49.886;8.074;2024-03-08T13:21:48;16.10;;;12.80;;
10894;SDS011;5500;49.886;8.074;2024-03-08T13:24:16;16.37;;;12.87;;
10894;SDS011;5500;49.886;8.074;2024-03-08T13:26:46;17.00;;;13.23;;
10894;SDS011;5500;49.886;8.074;2024-03-08T13:29:15;19.30;;;13.57;;
10894;SDS011;5500;49.886;8.074;2024-03-08T13:31:44;18.43;;;14.20;;
10894;SDS011;5500;49.886;8.074;2024-03-08T13:34:13;16.17;;;14.00;;
10894;SDS011;5500;49.886;8.074;2024-03-08T13:36:42;16.53;;;13.60;;
10894;SDS011;5500;49.886;8.074;2024-03-08T13:39:11;16.40;;;12.97;;
10894;SDS011;5500;49.886;8.074;2024-03-08T13:41:42;15.27;;;13.37;;
10894;SDS011;5500;49.886;8.074;2024-03-08T13:44:12;15.83;;;12.97;;
10894;SDS011;5500;49.886;8.074;2024-03-08T13:46:40;15.53;;;13.30;;
10894;SDS011;5500;49.886;8.074;2024-03-08T13:49:08;17.70;;;13.93;;
10894;SDS011;5500;49.886;8.074;2024-03-08T13:51:37;18.63;;;14.10;;
10894;SDS011;5500;49.886;8.074;2024-03-08T13:54:06;16.27;;;12.93;;
10894;SDS011;5500;49.886;8.074;2024-03-08T13:56:34;15.10;;;12.50;;
10894;SDS011;5500;49.886;8.074;2024-03-08T13:59:03;20.17;;;14.43;;
10894;SDS011;5500;49.886;8.074;2024-03-08T14:01:32;17.17;;;13.73;;
10894;SDS011;5500;49.886;8.074;2024-03-08T14:04:02;16.40;;;13.77;;
10894;SDS011;5500;49.886;8.074;2024-03-08T14:06:30;17.90;;;13.43;;
10894;SDS011;5500;49.886;8.074;2024-03-08T14:08:58;18.00;;;13.00;;
10894;SDS011;5500;49.886;8.074;2024-03-08T14:11:26;16.03;;;12.97;;
10894;SDS011;5500;49.886;8.074;2024-03-08T14:13:54;15.83;;;13.70;;
10894;SDS011;5500;49.886;8.074;2024-03-08T14:16:22;17.47;;;13.77;;
10894;SDS011;5500;49.886;8.074;2024-03-08T14:18:51;16.23;;;13.60;;
10894;SDS011;5500;49.886;8.074;2024-03-08T14:21:19;18.20;;;13.33;;
10894;SDS011;5500;49.886;8.074;2024-03-08T14:23:48;15.20;;;12.50;;
10894;SDS011;5500;49.886;8.074;2024-03-08T14:26:18;14.97;;;12.80;;
10894;SDS011;5500;49.886;8.074;2024-03-08T14:28:47;15.77;;;12.97;;
10894;SDS011;5500;49.886;8.074;2024-03-08T14:31:18;16.07;;;13.70;;
10894;SDS011;5500;49.886;8.074;2024-03-08T14:33:45;15.10;;;13.17;;
10894;SDS011;5500;49.886;8.074;2024-03-08T14:36:16;16.47;;;13.33;;
10894;SDS011;5500;49.886;8.074;2024-03-08T14:38:45;17.87;;;13.80;;
10894;SDS011;5500;49.886;8.074;2024-03-08T14:41:14;15.53;;;13.50;;
10894;SDS011;5500;49.886;8.074;2024-03-08T14:43:42;16.87;;;13.93;;